sensor_id;sensor_type;location;lat;lon;timestamp;pressure;altitude;pressure_sealevel;temperature;humidity
25498;BME280;13406;53.380;7.226;2023-05-01T00:01:40;101901.72;;;8.19;100.00
25498;BME280;13406;53.380;7.226;2023-05-01T00:04:05;101900.28;;;8.33;100.00
25498;BME280;13406;53.380;7.226;2023-05-01T00:06:31;101893.38;;;8.22;100.00
25498;BME280;13406;53.380;7.226;2023-05-01T00:08:57;101891.03;;;8.19;100.00
25498;BME280;13406;53.380;7.226;2023-05-01T00:11:23;101887.03;;;7.97;100.00
25498;BME280;13406;53.380;7.226;2023-05-01T00:13:49;101889.69;;;8.23;100.00
25498;BME280;13406;53.380;7.226;2023-05-01T00:16:14;101877.59;;;8.11;100.00
25498;BME280;13406;53.380;7.226;2023-05-01T00:18:41;101888.75;;;8.06;100.00
25498;BME280;13406;53.380;7.226;2023-05-01T00:21:07;101854.28;;;7.95;100.00
25498;BME280;13406;53.380;7.226;2023-05-01T00:23:33;101882.47;;;7.72;100.00
25498;BME280;13406;53.380;7.226;2023-05-01T00:25:58;101847.94;;;7.34;100.00
25498;BME280;13406;53.380;7.226;2023-05-01T00:28:24;101855.88;;;7.26;100.00
25498;BME280;13406;53.380;7.226;2023-05-01T00:30:49;101878.09;;;7.44;100.00
25498;BME280;13406;53.380;7.226;2023-05-01T00:33:15;101847.31;;;7.76;100.00
25498;BME280;13406;53.380;7.226;2023-05-01T00:35:44;101868.63;;;7.50;100.00
25498;BME280;13406;53.380;7.226;2023-05-01T00:38:10;101788.25;;;6.82;100.00
25498;BME280;13406;53.380;7.226;2023-05-01T00:40:42;101804.44;;;6.98;100.00
25498;BME280;13406;53.380;7.226;2023-05-01T00:43:09;101848.34;;;7.39;100.00
25498;BME280;13406;53.380;7.226;2023-05-01T00:45:35;101813.41;;;7.51;100.00
25498;BME280;13406;53.380;7.226;2023-05-01T00:48:00;101854.44;;;7.50;100.00
25498;BME280;13406;53.380;7.226;2023-05-01T00:50:27;101857.47;;;7.55;100.00
25498;BME280;13406;53.380;7.226;2023-05-01T00:52:52;101847.75;;;7.72;100.00
25498;BME280;13406;53.380;7.226;2023-05-01T00:55:18;101846.44;;;7.50;100.00
25498;BME280;13406;53.380;7.226;2023-05-01T00:57:43;101812.16;;;7.63;100.00
25498;BME280;13406;53.380;7.226;2023-05-01T01:00:10;101846.25;;;7.95;100.00
25498;BME280;13406;53.380;7.226;2023-05-01T01:02:36;101837.22;;;7.88;100.00
25498;BME280;13406;53.380;7.226;2023-05-01T01:05:02;101807.88;;;7.70;100.00
25498;BME280;13406;53.380;7.226;2023-05-01T01:16:01;101823.97;;;7.60;100.00
25498;BME280;13406;53.380;7.226;2023-05-01T01:21:07;101797.03;;;7.72;100.00
25498;BME280;13406;53.380;7.226;2023-05-01T01:24:41;101817.88;;;7.94;100.00
25498;BME280;13406;53.380;7.226;2023-05-01T01:29:38;101781.44;;;7.59;100.00
25498;BME280;13406;53.380;7.226;2023-05-01T01:32:18;101774.38;;;7.32;100.00
25498;BME280;13406;53.380;7.226;2023-05-01T01:34:54;101754.97;;;7.04;100.00
25498;BME280;13406;53.380;7.226;2023-05-01T01:37:24;101790.94;;;7.35;100.00
25498;BME280;13406;53.380;7.226;2023-05-01T01:39:56;101789.13;;;7.18;100.00
25498;BME280;13406;53.380;7.226;2023-05-01T01:42:29;101795.47;;;7.61;100.00
25498;BME280;13406;53.380;7.226;2023-05-01T01:45:00;101760.63;;;7.44;100.00
25498;BME280;13406;53.380;7.226;2023-05-01T01:47:30;101786.34;;;7.72;100.00
25498;BME280;13406;53.380;7.226;2023-05-01T01:49:59;101715.25;;;7.00;100.00
25498;BME280;13406;53.380;7.226;2023-05-01T01:52:26;101782.31;;;7.67;100.00
25498;BME280;13406;53.380;7.226;2023-05-01T01:54:57;101777.50;;;7.71;100.00
25498;BME280;13406;53.380;7.226;2023-05-01T01:57:24;101752.13;;;7.67;100.00
25498;BME280;13406;53.380;7.226;2023-05-01T01:59:52;101744.19;;;7.31;100.00
25498;BME280;13406;53.380;7.226;2023-05-01T02:02:20;101771.25;;;7.36;100.00
25498;BME280;13406;53.380;7.226;2023-05-01T02:04:50;101762.53;;;7.34;100.00
25498;BME280;13406;53.380;7.226;2023-05-01T02:07:17;101763.50;;;7.07;100.00
25498;BME280;13406;53.380;7.226;2023-05-01T02:09:45;101754.81;;;6.69;100.00
25498;BME280;13406;53.380;7.226;2023-05-01T02:12:11;101717.94;;;7.00;100.00
25498;BME280;13406;53.380;7.226;2023-05-01T02:14:38;101761.66;;;7.52;100.00
25498;BME280;13406;53.380;7.226;2023-05-01T02:17:05;101754.22;;;7.37;100.00
25498;BME280;13406;53.380;7.226;2023-05-01T02:19:33;101757.28;;;7.42;100.00
25498;BME280;13406;53.380;7.226;2023-05-01T02:21:59;101756.00;;;7.46;100.00
25498;BME280;13406;53.380;7.226;2023-05-01T02:24:27;101741.00;;;7.10;100.00
25498;BME280;13406;53.380;7.226;2023-05-01T02:26:59;101749.78;;;7.02;100.00
25498;BME280;13406;53.380;7.226;2023-05-01T02:29:25;101744.19;;;7.31;100.00
25498;BME280;13406;53.380;7.226;2023-05-01T02:31:52;101750.13;;;7.25;100.00
25498;BME280;13406;53.380;7.226;2023-05-01T02:34:18;101710.03;;;7.17;100.00
25498;BME280;13406;53.380;7.226;2023-05-01T02:36:43;101729.53;;;7.35;100.00
25498;BME280;13406;53.380;7.226;2023-05-01T02:39:09;101716.19;;;7.35;100.00
25498;BME280;13406;53.380;7.226;2023-05-01T02:41:36;101726.81;;;7.53;100.00
25498;BME280;13406;53.380;7.226;2023-05-01T02:44:04;101708.50;;;7.14;100.00
25498;BME280;13406;53.380;7.226;2023-05-01T02:46:34;101687.91;;;6.98;100.00
25498;BME280;13406;53.380;7.226;2023-05-01T02:49:01;101708.50;;;7.14;100.00
25498;BME280;13406;53.380;7.226;2023-05-01T02:51:28;101696.81;;;7.07;100.00
25498;BME280;13406;53.380;7.226;2023-05-01T02:53:54;101681.38;;;6.75;100.00
25498;BME280;13406;53.380;7.226;2023-05-01T02:56:20;101692.16;;;7.09;100.00
25498;BME280;13406;53.380;7.226;2023-05-01T02:58:48;101662.47;;;6.86;100.00
25498;BME280;13406;53.380;7.226;2023-05-01T03:01:14;101691.69;;;7.14;100.00
25498;BME280;13406;53.380;7.226;2023-05-01T03:03:39;101676.25;;;6.82;100.00
25498;BME280;13406;53.380;7.226;2023-05-01T03:06:05;101673.22;;;6.94;100.00
25498;BME280;13406;53.380;7.226;2023-05-01T03:08:30;101677.69;;;6.94;100.00
25498;BME280;13406;53.380;7.226;2023-05-01T03:10:56;101663.63;;;6.66;100.00
25498;BME280;13406;53.380;7.226;2023-05-01T03:13:21;101642.16;;;6.49;100.00
25498;BME280;13406;53.380;7.226;2023-05-01T03:15:47;101669.63;;;6.68;100.00
25498;BME280;13406;53.380;7.226;2023-05-01T03:18:12;101652.59;;;7.05;100.00
25498;BME280;13406;53.380;7.226;2023-05-01T03:20:38;101651.63;;;6.88;100.00
25498;BME280;13406;53.380;7.226;2023-05-01T03:23:03;101660.34;;;6.72;100.00
25498;BME280;13406;53.380;7.226;2023-05-01T03:25:30;101662.09;;;6.45;100.00
25498;BME280;13406;53.380;7.226;2023-05-01T03:27:56;101650.28;;;6.30;100.00
25498;BME280;13406;53.380;7.226;2023-05-01T03:30:21;101634.66;;;5.89;100.00
25498;BME280;13406;53.380;7.226;2023-05-01T03:32:46;101652.00;;;6.21;100.00
25498;BME280;13406;53.380;7.226;2023-05-01T03:35:12;101641.31;;;6.49;100.00
25498;BME280;13406;53.380;7.226;2023-05-01T03:37:37;101641.66;;;6.18;100.00
25498;BME280;13406;53.380;7.226;2023-05-01T03:40:03;101661.03;;;6.38;100.00
25498;BME280;13406;53.380;7.226;2023-05-01T03:42:28;101634.81;;;6.16;100.00
25498;BME280;13406;53.380;7.226;2023-05-01T03:44:54;101638.38;;;6.06;100.00
25498;BME280;13406;53.380;7.226;2023-05-01T03:47:19;101631.72;;;6.38;100.00
25498;BME280;13406;53.380;7.226;2023-05-01T03:49:45;101615.34;;;6.51;100.00
25498;BME280;13406;53.380;7.226;2023-05-01T03:52:10;101636.34;;;6.72;100.00
25498;BME280;13406;53.380;7.226;2023-05-01T03:54:36;101599.81;;;6.28;100.00
25498;BME280;13406;53.380;7.226;2023-05-01T03:57:03;101633.91;;;6.78;100.00
25498;BME280;13406;53.380;7.226;2023-05-01T03:59:28;101642.03;;;6.95;100.00
25498;BME280;13406;53.380;7.226;2023-05-01T04:01:54;101547.06;;;6.32;100.00
25498;BME280;13406;53.380;7.226;2023-05-01T04:04:19;101632.59;;;6.83;100.00
25498;BME280;13406;53.380;7.226;2023-05-01T04:06:45;101634.66;;;6.89;100.00
25498;BME280;13406;53.380;7.226;2023-05-01T04:09:12;101628.56;;;6.78;100.00
25498;BME280;13406;53.380;7.226;2023-05-01T04:11:38;101529.16;;;5.61;100.00
25498;BME280;13406;53.380;7.226;2023-05-01T04:14:03;101628.28;;;6.28;100.00
25498;BME280;13406;53.380;7.226;2023-05-01T04:16:29;101597.19;;;5.46;100.00
25498;BME280;13406;53.380;7.226;2023-05-01T04:18:55;101615.63;;;5.57;100.00
25498;BME280;13406;53.380;7.226;2023-05-01T04:21:21;101504.28;;;5.07;100.00
25498;BME280;13406;53.380;7.226;2023-05-01T04:23:46;101639.44;;;5.58;100.00
25498;BME280;13406;53.380;7.226;2023-05-01T04:26:12;101575.13;;;5.26;100.00
25498;BME280;13406;53.380;7.226;2023-05-01T04:28:37;101600.28;;;5.69;100.00
25498;BME280;13406;53.380;7.226;2023-05-01T04:31:02;101596.06;;;6.03;100.00
25498;BME280;13406;53.380;7.226;2023-05-01T04:33:28;101494.38;;;5.27;100.00
25498;BME280;13406;53.380;7.226;2023-05-01T04:35:54;101609.78;;;6.08;100.00
25498;BME280;13406;53.380;7.226;2023-05-01T04:38:19;101603.22;;;6.03;100.00
25498;BME280;13406;53.380;7.226;2023-05-01T04:40:44;101421.63;;;5.18;100.00
25498;BME280;13406;53.380;7.226;2023-05-01T04:43:11;101596.59;;;6.25;100.00
25498;BME280;13406;53.380;7.226;2023-05-01T04:45:37;101423.81;;;5.50;100.00
25498;BME280;13406;53.380;7.226;2023-05-01T04:48:03;101590.75;;;6.57;100.00
25498;BME280;13406;53.380;7.226;2023-05-01T04:50:28;101546.59;;;6.19;100.00
25498;BME280;13406;53.380;7.226;2023-05-01T04:52:54;101531.91;;;6.32;100.00
25498;BME280;13406;53.380;7.226;2023-05-01T04:55:19;101606.19;;;6.71;100.00
25498;BME280;13406;53.380;7.226;2023-05-01T04:57:45;101526.69;;;6.05;100.00
25498;BME280;13406;53.380;7.226;2023-05-01T05:00:11;101593.91;;;6.78;100.00
25498;BME280;13406;53.380;7.226;2023-05-01T05:02:37;101591.34;;;6.95;100.00
25498;BME280;13406;53.380;7.226;2023-05-01T05:05:02;101598.59;;;6.85;100.00
25498;BME280;13406;53.380;7.226;2023-05-01T05:07:28;101606.56;;;6.59;100.00
25498;BME280;13406;53.380;7.226;2023-05-01T05:09:53;101611.38;;;6.37;100.00
25498;BME280;13406;53.380;7.226;2023-05-01T05:12:18;101607.72;;;6.20;100.00
25498;BME280;13406;53.380;7.226;2023-05-01T05:14:44;101527.31;;;6.25;100.00
25498;BME280;13406;53.380;7.226;2023-05-01T05:17:09;101586.41;;;6.38;100.00
25498;BME280;13406;53.380;7.226;2023-05-01T05:19:35;101512.97;;;6.00;100.00
25498;BME280;13406;53.380;7.226;2023-05-01T05:22:01;101478.13;;;6.11;100.00
25498;BME280;13406;53.380;7.226;2023-05-01T05:24:27;101584.28;;;6.60;100.00
25498;BME280;13406;53.380;7.226;2023-05-01T05:26:52;101599.94;;;7.07;100.00
25498;BME280;13406;53.380;7.226;2023-05-01T05:29:19;101483.88;;;6.76;100.00
25498;BME280;13406;53.380;7.226;2023-05-01T05:31:44;101488.25;;;6.51;100.00
25498;BME280;13406;53.380;7.226;2023-05-01T05:34:10;101587.59;;;7.40;100.00
25498;BME280;13406;53.380;7.226;2023-05-01T05:36:35;101582.97;;;7.50;100.00
25498;BME280;13406;53.380;7.226;2023-05-01T05:39:01;101472.03;;;6.71;100.00
25498;BME280;13406;53.380;7.226;2023-05-01T05:41:27;101580.38;;;7.75;100.00
25498;BME280;13406;53.380;7.226;2023-05-01T05:43:53;101529.31;;;7.69;100.00
25498;BME280;13406;53.380;7.226;2023-05-01T05:46:18;101497.00;;;7.30;100.00
25498;BME280;13406;53.380;7.226;2023-05-01T05:48:44;101574.78;;;7.94;100.00
25498;BME280;13406;53.380;7.226;2023-05-01T05:51:09;101580.44;;;7.91;100.00
25498;BME280;13406;53.380;7.226;2023-05-01T05:53:35;101574.81;;;8.02;100.00
25498;BME280;13406;53.380;7.226;2023-05-01T05:56:00;101573.97;;;8.10;100.00
25498;BME280;13406;53.380;7.226;2023-05-01T05:58:26;101522.00;;;7.88;100.00
25498;BME280;13406;53.380;7.226;2023-05-01T06:00:51;101567.63;;;8.27;100.00
25498;BME280;13406;53.380;7.226;2023-05-01T06:03:20;101449.34;;;7.60;100.00
25498;BME280;13406;53.380;7.226;2023-05-01T06:05:46;101490.81;;;8.05;100.00
25498;BME280;13406;53.380;7.226;2023-05-01T06:08:11;101562.34;;;8.60;100.00
25498;BME280;13406;53.380;7.226;2023-05-01T06:10:40;101448.75;;;7.99;100.00
25498;BME280;13406;53.380;7.226;2023-05-01T06:13:06;101486.97;;;8.07;100.00
25498;BME280;13406;53.380;7.226;2023-05-01T06:15:35;101553.66;;;8.74;100.00
25498;BME280;13406;53.380;7.226;2023-05-01T06:18:01;101557.63;;;8.78;100.00
25498;BME280;13406;53.380;7.226;2023-05-01T06:20:27;101415.66;;;7.91;100.00
25498;BME280;13406;53.380;7.226;2023-05-01T06:22:52;101506.19;;;8.52;100.00
25498;BME280;13406;53.380;7.226;2023-05-01T06:25:18;101429.53;;;8.03;100.00
25498;BME280;13406;53.380;7.226;2023-05-01T06:27:43;101533.22;;;8.81;100.00
25498;BME280;13406;53.380;7.226;2023-05-01T06:30:09;101478.44;;;8.53;100.00
25498;BME280;13406;53.380;7.226;2023-05-01T06:32:34;101546.91;;;8.95;100.00
25498;BME280;13406;53.380;7.226;2023-05-01T06:35:00;101481.25;;;8.68;100.00
25498;BME280;13406;53.380;7.226;2023-05-01T06:37:25;101544.72;;;9.07;100.00
25498;BME280;13406;53.380;7.226;2023-05-01T06:39:51;101554.34;;;9.24;100.00
25498;BME280;13406;53.380;7.226;2023-05-01T06:42:16;101421.78;;;8.57;100.00
25498;BME280;13406;53.380;7.226;2023-05-01T06:44:42;101463.66;;;8.81;100.00
25498;BME280;13406;53.380;7.226;2023-05-01T06:47:07;101437.75;;;8.82;100.00
25498;BME280;13406;53.380;7.226;2023-05-01T06:49:34;101522.84;;;9.34;100.00
25498;BME280;13406;53.380;7.226;2023-05-01T06:51:59;101454.41;;;9.00;100.00
25498;BME280;13406;53.380;7.226;2023-05-01T06:54:25;101518.28;;;9.43;100.00
25498;BME280;13406;53.380;7.226;2023-05-01T06:56:53;101451.53;;;9.10;100.00
25498;BME280;13406;53.380;7.226;2023-05-01T06:59:19;101504.44;;;9.70;100.00
25498;BME280;13406;53.380;7.226;2023-05-01T07:01:44;101536.25;;;9.96;100.00
25498;BME280;13406;53.380;7.226;2023-05-01T07:04:10;101489.13;;;9.79;100.00
25498;BME280;13406;53.380;7.226;2023-05-01T07:06:35;101486.47;;;9.79;100.00
25498;BME280;13406;53.380;7.226;2023-05-01T07:09:02;101454.97;;;9.58;100.00
25498;BME280;13406;53.380;7.226;2023-05-01T07:11:27;101450.69;;;9.72;100.00
25498;BME280;13406;53.380;7.226;2023-05-01T07:13:53;101418.19;;;9.52;100.00
25498;BME280;13406;53.380;7.226;2023-05-01T07:16:18;101479.50;;;9.93;100.00
25498;BME280;13406;53.380;7.226;2023-05-01T07:18:45;101442.47;;;9.73;100.00
25498;BME280;13406;53.380;7.226;2023-05-01T07:21:10;101503.91;;;10.21;100.00
25498;BME280;13406;53.380;7.226;2023-05-01T07:23:36;101445.50;;;9.93;100.00
25498;BME280;13406;53.380;7.226;2023-05-01T07:26:02;101501.88;;;10.46;100.00
25498;BME280;13406;53.380;7.226;2023-05-01T07:28:28;101459.25;;;10.13;100.00
25498;BME280;13406;53.380;7.226;2023-05-01T07:30:54;101512.81;;;10.59;100.00
25498;BME280;13406;53.380;7.226;2023-05-01T07:33:19;101461.78;;;10.30;100.00
25498;BME280;13406;53.380;7.226;2023-05-01T07:35:44;101489.06;;;10.56;100.00
25498;BME280;13406;53.380;7.226;2023-05-01T07:38:10;101519.31;;;10.80;100.00
25498;BME280;13406;53.380;7.226;2023-05-01T07:40:36;101495.63;;;10.69;100.00
25498;BME280;13406;53.380;7.226;2023-05-01T07:43:02;101520.53;;;10.92;100.00
25498;BME280;13406;53.380;7.226;2023-05-01T07:45:29;101412.75;;;10.21;100.00
25498;BME280;13406;53.380;7.226;2023-05-01T07:47:54;101522.03;;;10.95;100.00
25498;BME280;13406;53.380;7.226;2023-05-01T07:50:21;101523.69;;;11.11;100.00
25498;BME280;13406;53.380;7.226;2023-05-01T07:52:47;101525.25;;;11.05;100.00
25498;BME280;13406;53.380;7.226;2023-05-01T07:55:13;101445.09;;;10.57;100.00
25498;BME280;13406;53.380;7.226;2023-05-01T07:57:38;101435.41;;;10.71;100.00
25498;BME280;13406;53.380;7.226;2023-05-01T08:00:04;101517.09;;;11.28;100.00
25498;BME280;13406;53.380;7.226;2023-05-01T08:02:30;101448.28;;;10.91;100.00
25498;BME280;13406;53.380;7.226;2023-05-01T08:04:55;101444.94;;;10.89;100.00
25498;BME280;13406;53.380;7.226;2023-05-01T08:07:21;101532.09;;;11.22;100.00
25498;BME280;13406;53.380;7.226;2023-05-01T08:09:46;101525.88;;;11.37;100.00
25498;BME280;13406;53.380;7.226;2023-05-01T08:12:12;101534.59;;;11.39;100.00
25498;BME280;13406;53.380;7.226;2023-05-01T08:14:37;101441.56;;;11.01;100.00
25498;BME280;13406;53.380;7.226;2023-05-01T08:17:03;101509.38;;;11.40;100.00
25498;BME280;13406;53.380;7.226;2023-05-01T08:19:28;101519.31;;;11.75;100.00
25498;BME280;13406;53.380;7.226;2023-05-01T08:21:54;101479.25;;;11.59;100.00
25498;BME280;13406;53.380;7.226;2023-05-01T08:24:19;101524.59;;;11.84;100.00
25498;BME280;13406;53.380;7.226;2023-05-01T08:26:45;101448.28;;;11.27;100.00
25498;BME280;13406;53.380;7.226;2023-05-01T08:29:11;101407.97;;;11.05;100.00
25498;BME280;13406;53.380;7.226;2023-05-01T08:31:36;101525.25;;;11.71;100.00
25498;BME280;13406;53.380;7.226;2023-05-01T08:34:04;101447.06;;;11.44;100.00
25498;BME280;13406;53.380;7.226;2023-05-01T08:36:29;101446.50;;;11.49;100.00
25498;BME280;13406;53.380;7.226;2023-05-01T08:38:56;101441.34;;;11.32;100.00
25498;BME280;13406;53.380;7.226;2023-05-01T08:41:21;101452.03;;;11.47;100.00
25498;BME280;13406;53.380;7.226;2023-05-01T08:43:48;101369.09;;;11.01;100.00
25498;BME280;13406;53.380;7.226;2023-05-01T08:46:20;101396.09;;;11.15;100.00
25498;BME280;13406;53.380;7.226;2023-05-01T08:48:50;101449.34;;;11.47;100.00
25498;BME280;13406;53.380;7.226;2023-05-01T08:51:17;101462.75;;;11.62;100.00
25498;BME280;13406;53.380;7.226;2023-05-01T08:53:45;101546.91;;;12.20;100.00
25498;BME280;13406;53.380;7.226;2023-05-01T08:56:14;101527.25;;;12.20;100.00
25498;BME280;13406;53.380;7.226;2023-05-01T08:58:41;101397.22;;;11.42;100.00
25498;BME280;13406;53.380;7.226;2023-05-01T09:01:13;101477.94;;;11.91;100.00
25498;BME280;13406;53.380;7.226;2023-05-01T09:03:40;101505.47;;;12.15;100.00
25498;BME280;13406;53.380;7.226;2023-05-01T09:06:08;101524.22;;;12.51;100.00
25498;BME280;13406;53.380;7.226;2023-05-01T09:08:33;101466.81;;;12.16;100.00
25498;BME280;13406;53.380;7.226;2023-05-01T09:11:00;101521.34;;;12.31;100.00
25498;BME280;13406;53.380;7.226;2023-05-01T09:13:25;101458.06;;;12.07;100.00
25498;BME280;13406;53.380;7.226;2023-05-01T09:15:51;101520.16;;;12.62;100.00
25498;BME280;13406;53.380;7.226;2023-05-01T09:18:16;101353.22;;;11.64;100.00
25498;BME280;13406;53.380;7.226;2023-05-01T09:20:42;101473.44;;;12.41;100.00
25498;BME280;13406;53.380;7.226;2023-05-01T09:23:07;101503.75;;;12.85;100.00
25498;BME280;13406;53.380;7.226;2023-05-01T09:25:33;101466.53;;;12.60;100.00
25498;BME280;13406;53.380;7.226;2023-05-01T09:27:58;101435.28;;;12.31;100.00
25498;BME280;13406;53.380;7.226;2023-05-01T09:30:34;101534.28;;;12.99;100.00
25498;BME280;13406;53.380;7.226;2023-05-01T09:33:08;101523.81;;;12.82;100.00
25498;BME280;13406;53.380;7.226;2023-05-01T09:35:49;101530.47;;;13.21;100.00
25498;BME280;13406;53.380;7.226;2023-05-01T09:38:17;101424.41;;;12.46;100.00
25498;BME280;13406;53.380;7.226;2023-05-01T09:43:12;101313.25;;;11.83;100.00
25498;BME280;13406;53.380;7.226;2023-05-01T09:45:37;101447.94;;;12.65;100.00
25498;BME280;13406;53.380;7.226;2023-05-01T09:48:10;101515.31;;;13.14;100.00
25498;BME280;13406;53.380;7.226;2023-05-01T09:50:37;101362.25;;;12.06;100.00
25498;BME280;13406;53.380;7.226;2023-05-01T09:53:04;101224.59;;;11.26;100.00
25498;BME280;13406;53.380;7.226;2023-05-01T09:55:31;101521.28;;;13.09;100.00
25498;BME280;13406;53.380;7.226;2023-05-01T09:57:57;101348.28;;;12.17;100.00
25498;BME280;13406;53.380;7.226;2023-05-01T10:00:25;101366.28;;;12.17;100.00
25498;BME280;13406;53.380;7.226;2023-05-01T10:02:51;101223.31;;;11.50;100.00
25498;BME280;13406;53.380;7.226;2023-05-01T10:05:18;101409.31;;;12.45;100.00
25498;BME280;13406;53.380;7.226;2023-05-01T10:08:01;101281.78;;;11.98;100.00
25498;BME280;13406;53.380;7.226;2023-05-01T10:10:29;101230.66;;;11.63;100.00
25498;BME280;13406;53.380;7.226;2023-05-01T10:12:54;101356.28;;;12.39;100.00
25498;BME280;13406;53.380;7.226;2023-05-01T10:15:20;101242.13;;;11.79;100.00
25498;BME280;13406;53.380;7.226;2023-05-01T10:17:49;101341.34;;;12.30;100.00
25498;BME280;13406;53.380;7.226;2023-05-01T10:20:16;101239.56;;;11.92;100.00
25498;BME280;13406;53.380;7.226;2023-05-01T10:22:41;101265.78;;;12.18;100.00
25498;BME280;13406;53.380;7.226;2023-05-01T10:25:08;101313.75;;;12.62;100.00
25498;BME280;13406;53.380;7.226;2023-05-01T10:27:39;101299.44;;;12.55;100.00
25498;BME280;13406;53.380;7.226;2023-05-01T10:30:06;101495.09;;;13.86;100.00
25498;BME280;13406;53.380;7.226;2023-05-01T10:32:32;101351.56;;;12.96;100.00
25498;BME280;13406;53.380;7.226;2023-05-01T10:35:19;101361.06;;;13.40;100.00
25498;BME280;13406;53.380;7.226;2023-05-01T10:38:04;101497.19;;;14.10;100.00
25498;BME280;13406;53.380;7.226;2023-05-01T10:43:27;101498.84;;;14.11;100.00
25498;BME280;13406;53.380;7.226;2023-05-01T10:51:16;101486.59;;;14.29;100.00
25498;BME280;13406;53.380;7.226;2023-05-01T10:53:45;101458.78;;;14.08;100.00
25498;BME280;13406;53.380;7.226;2023-05-01T10:58:59;101394.69;;;14.10;100.00
25498;BME280;13406;53.380;7.226;2023-05-01T11:03:59;101484.97;;;14.54;100.00
25498;BME280;13406;53.380;7.226;2023-05-01T11:06:25;101470.41;;;14.68;100.00
25498;BME280;13406;53.380;7.226;2023-05-01T11:08:51;101413.34;;;14.32;100.00
25498;BME280;13406;53.380;7.226;2023-05-01T11:14:04;101423.09;;;14.33;100.00
25498;BME280;13406;53.380;7.226;2023-05-01T11:19:10;101493.06;;;14.74;100.00
25498;BME280;13406;53.380;7.226;2023-05-01T11:21:37;101428.09;;;14.09;100.00
25498;BME280;13406;53.380;7.226;2023-05-01T11:24:08;101496.16;;;14.71;100.00
25498;BME280;13406;53.380;7.226;2023-05-01T11:26:41;101433.88;;;14.46;100.00
25498;BME280;13406;53.380;7.226;2023-05-01T11:29:08;101413.16;;;14.27;100.00
25498;BME280;13406;53.380;7.226;2023-05-01T11:31:35;101486.22;;;14.78;100.00
25498;BME280;13406;53.380;7.226;2023-05-01T11:34:01;101453.59;;;14.66;100.00
25498;BME280;13406;53.380;7.226;2023-05-01T11:36:28;101492.63;;;14.90;100.00
25498;BME280;13406;53.380;7.226;2023-05-01T11:38:56;101483.47;;;14.91;100.00
25498;BME280;13406;53.380;7.226;2023-05-01T11:41:23;101493.63;;;14.96;100.00
25498;BME280;13406;53.380;7.226;2023-05-01T11:43:53;101484.41;;;15.17;100.00
25498;BME280;13406;53.380;7.226;2023-05-01T11:46:23;101347.34;;;14.28;100.00
25498;BME280;13406;53.380;7.226;2023-05-01T11:48:51;101489.59;;;15.19;100.00
25498;BME280;13406;53.380;7.226;2023-05-01T11:51:17;101369.50;;;14.69;100.00
25498;BME280;13406;53.380;7.226;2023-05-01T11:56:28;101404.75;;;14.75;100.00
25498;BME280;13406;53.380;7.226;2023-05-01T11:58:55;101477.78;;;15.13;100.00
25498;BME280;13406;53.380;7.226;2023-05-01T12:01:32;101462.75;;;15.24;100.00
25498;BME280;13406;53.380;7.226;2023-05-01T12:03:58;101438.63;;;15.29;100.00
25498;BME280;13406;53.380;7.226;2023-05-01T12:09:05;101478.47;;;15.47;100.00
25498;BME280;13406;53.380;7.226;2023-05-01T12:11:32;101482.66;;;15.43;100.00
25498;BME280;13406;53.380;7.226;2023-05-01T12:13:58;101436.22;;;15.14;100.00
25498;BME280;13406;53.380;7.226;2023-05-01T12:16:24;101477.69;;;15.33;100.00
25498;BME280;13406;53.380;7.226;2023-05-01T12:18:49;101451.75;;;15.19;100.00
25498;BME280;13406;53.380;7.226;2023-05-01T12:21:15;101437.72;;;15.48;100.00
25498;BME280;13406;53.380;7.226;2023-05-01T12:23:42;101435.72;;;15.30;100.00
25498;BME280;13406;53.380;7.226;2023-05-01T12:26:23;101466.31;;;15.69;100.00
25498;BME280;13406;53.380;7.226;2023-05-01T12:29:00;101473.91;;;15.86;100.00
25498;BME280;13406;53.380;7.226;2023-05-01T12:31:26;101478.38;;;16.30;100.00
25498;BME280;13406;53.380;7.226;2023-05-01T12:34:00;101477.56;;;15.98;100.00
25498;BME280;13406;53.380;7.226;2023-05-01T12:36:28;101459.25;;;15.68;100.00
25498;BME280;13406;53.380;7.226;2023-05-01T12:39:10;101410.72;;;15.73;100.00
25498;BME280;13406;53.380;7.226;2023-05-01T12:41:44;101484.59;;;16.06;100.00
25498;BME280;13406;53.380;7.226;2023-05-01T12:46:52;101409.69;;;15.74;100.00
25498;BME280;13406;53.380;7.226;2023-05-01T12:49:18;101434.50;;;16.21;100.00
25498;BME280;13406;53.380;7.226;2023-05-01T12:51:51;101465.00;;;16.35;100.00
25498;BME280;13406;53.380;7.226;2023-05-01T12:54:43;101466.53;;;16.24;100.00
25498;BME280;13406;53.380;7.226;2023-05-01T12:57:13;101362.34;;;15.58;100.00
25498;BME280;13406;53.380;7.226;2023-05-01T12:59:42;101463.47;;;16.21;100.00
25498;BME280;13406;53.380;7.226;2023-05-01T13:02:12;101476.03;;;16.34;100.00
25498;BME280;13406;53.380;7.226;2023-05-01T13:04:42;101366.94;;;15.58;100.00
25498;BME280;13406;53.380;7.226;2023-05-01T13:07:12;101437.66;;;16.43;100.00
25498;BME280;13406;53.380;7.226;2023-05-01T13:09:55;101434.59;;;16.33;100.00
25498;BME280;13406;53.380;7.226;2023-05-01T13:12:22;101447.53;;;16.06;100.00
25498;BME280;13406;53.380;7.226;2023-05-01T13:14:49;101444.41;;;16.09;100.00
25498;BME280;13406;53.380;7.226;2023-05-01T13:17:27;101446.69;;;16.31;100.00
25498;BME280;13406;53.380;7.226;2023-05-01T13:19:58;101462.59;;;16.45;100.00
25498;BME280;13406;53.380;7.226;2023-05-01T13:22:33;101463.59;;;16.51;100.00
25498;BME280;13406;53.380;7.226;2023-05-01T13:25:16;101386.78;;;16.27;100.00
25498;BME280;13406;53.380;7.226;2023-05-01T13:27:51;101386.03;;;16.57;100.00
25498;BME280;13406;53.380;7.226;2023-05-01T13:30:19;101418.09;;;16.60;100.00